Time;durP1;ratioP1;P1;durP2;ratioP2;P2;SDS_P1;SDS_P2;PMS_P1;PMS_P2;Temp;Humidity;BMP_temperature;BMP_pressure;BME280_temperature;BME280_humidity;BME280_pressure;Samples;Min_cycle;Max_cycle;Signal;HPM_P1;HPM_P2
2021/06/11 00:00:45;;;;;;;12.10;6.47;;;;;;;;;;5093216;28;20024;-51
2021/06/11 00:03:11;;;;;;;8.05;5.40;;;;;;;;;;5093218;28;20032;-52
2021/06/11 00:05:37;;;;;;;6.65;4.95;;;;;;;;;;5093373;28;20042;-52
2021/06/11 00:08:06;;;;;;;12.68;6.97;;;;;;;;;;5093204;28;20081;-52
2021/06/11 00:10:32;;;;;;;22.27;13.98;;;;;;;;;;5092924;28;20049;-52
2021/06/11 00:12:59;;;;;;;21.00;11.32;;;;;;;;;;5092863;28;20133;-52
2021/06/11 00:15:26;;;;;;;8.65;6.13;;;;;;;;;;5092993;28;20016;-51
2021/06/11 00:17:52;;;;;;;10.07;7.57;;;;;;;;;;5092895;28;20024;-53
2021/06/11 00:20:19;;;;;;;13.38;9.75;;;;;;;;;;5093048;28;20067;-53
2021/06/11 00:22:45;;;;;;;7.15;5.15;;;;;;;;;;5096976;28;20423;-52
2021/06/11 00:25:13;;;;;;;8.90;6.13;;;;;;;;;;5096978;28;20024;-51
2021/06/11 00:27:39;;;;;;;13.13;9.75;;;;;;;;;;5096959;28;20027;-52
2021/06/11 00:30:06;;;;;;;6.72;4.82;;;;;;;;;;5096915;28;20028;-52
2021/06/11 00:32:32;;;;;;;4.82;4.13;;;;;;;;;;5096882;28;20084;-52
2021/06/11 00:34:58;;;;;;;20.55;11.80;;;;;;;;;;5096739;28;20027;-52
2021/06/11 00:37:24;;;;;;;14.40;9.85;;;;;;;;;;5096787;28;20016;-52
2021/06/11 00:39:51;;;;;;;11.80;7.80;;;;;;;;;;5096504;28;20039;-52
2021/06/11 00:42:17;;;;;;;8.70;6.32;;;;;;;;;;5096690;28;20024;-52
2021/06/11 00:44:43;;;;;;;8.65;5.80;;;;;;;;;;5096433;28;20059;-54
2021/06/11 00:47:10;;;;;;;6.43;5.20;;;;;;;;;;5096536;28;20051;-51
2021/06/11 00:49:36;;;;;;;8.32;6.95;;;;;;;;;;5096585;28;20032;-53
2021/06/11 00:52:05;;;;;;;16.50;10.93;;;;;;;;;;5096524;28;20102;-52
2021/06/11 00:54:31;;;;;;;11.88;8.27;;;;;;;;;;5096395;28;20031;-43
2021/06/11 00:56:58;;;;;;;11.32;8.02;;;;;;;;;;5096246;28;20439;-44
2021/06/11 00:59:24;;;;;;;8.98;6.82;;;;;;;;;;5096240;28;20081;-46
2021/06/11 01:01:50;;;;;;;9.68;6.93;;;;;;;;;;5096300;28;20028;-51
2021/06/11 01:04:16;;;;;;;12.57;10.02;;;;;;;;;;5096197;28;20028;-54
2021/06/11 01:06:43;;;;;;;14.27;10.05;;;;;;;;;;5096178;28;20024;-45
2021/06/11 01:09:10;;;;;;;10.25;7.05;;;;;;;;;;5096176;28;20464;-45
2021/06/11 01:11:39;;;;;;;7.97;5.80;;;;;;;;;;5096075;28;20036;-45
2021/06/11 01:14:06;;;;;;;5.50;4.72;;;;;;;;;;5095799;28;20076;-54
2021/06/11 01:16:32;;;;;;;5.45;4.45;;;;;;;;;;5095926;28;20027;-53
2021/06/11 01:18:58;;;;;;;8.70;4.53;;;;;;;;;;5095653;28;20064;-55
2021/06/11 01:21:26;;;;;;;9.27;6.93;;;;;;;;;;5095877;28;20082;-48
2021/06/11 01:24:14;;;;;;;6.20;4.90;;;;;;;;;;5095824;28;20020;-51
2021/06/11 01:26:44;;;;;;;10.25;6.68;;;;;;;;;;5095762;28;20440;-53
2021/06/11 01:29:13;;;;;;;8.02;6.45;;;;;;;;;;5095828;28;20439;-52
2021/06/11 01:31:45;;;;;;;9.15;6.75;;;;;;;;;;5095468;28;20383;-53
2021/06/11 01:34:14;;;;;;;8.43;6.95;;;;;;;;;;5093491;28;20027;-52
2021/06/11 01:36:42;;;;;;;10.00;8.07;;;;;;;;;;5095596;28;20027;-51
2021/06/11 01:39:08;;;;;;;10.18;8.43;;;;;;;;;;5095340;28;20036;-54
2021/06/11 01:41:38;;;;;;;7.65;6.18;;;;;;;;;;5095520;28;20016;-52
2021/06/11 01:44:05;;;;;;;7.80;6.32;;;;;;;;;;5095464;28;20036;-52
2021/06/11 01:46:34;;;;;;;7.38;5.65;;;;;;;;;;5095462;28;20526;-53
2021/06/11 01:49:01;;;;;;;21.10;13.07;;;;;;;;;;5095437;28;20020;-52
2021/06/11 01:51:27;;;;;;;10.02;6.25;;;;;;;;;;5095306;28;20024;-51
2021/06/11 01:53:55;;;;;;;6.38;5.32;;;;;;;;;;5095280;28;20031;-52
2021/06/11 01:56:22;;;;;;;6.57;5.25;;;;;;;;;;5095605;28;20375;-52
2021/06/11 01:58:49;;;;;;;5.85;4.90;;;;;;;;;;5095152;28;20499;-52
2021/06/11 02:01:17;;;;;;;6.70;5.93;;;;;;;;;;5095641;28;20024;-51
2021/06/11 02:03:48;;;;;;;7.45;5.30;;;;;;;;;;5094935;28;20028;-52
2021/06/11 02:06:16;;;;;;;6.22;5.22;;;;;;;;;;5094987;28;20028;-50
2021/06/11 02:08:43;;;;;;;7.00;5.65;;;;;;;;;;5094942;28;20089;-52
2021/06/11 02:11:09;;;;;;;5.90;4.72;;;;;;;;;;5095130;28;20016;-51
2021/06/11 02:13:36;;;;;;;6.97;5.00;;;;;;;;;;5094704;28;20127;-49
2021/06/11 02:16:03;;;;;;;6.03;5.07;;;;;;;;;;5094850;28;20016;-53
2021/06/11 02:18:30;;;;;;;6.57;4.65;;;;;;;;;;5095270;28;20027;-52
2021/06/11 02:20:56;;;;;;;7.13;4.50;;;;;;;;;;5094693;28;20024;-52
2021/06/11 02:23:22;;;;;;;28.00;17.83;;;;;;;;;;5095013;28;20370;-52
2021/06/11 02:25:49;;;;;;;20.23;12.15;;;;;;;;;;5094609;28;20103;-52
2021/06/11 02:28:16;;;;;;;15.27;9.43;;;;;;;;;;5094731;28;20069;-53
2021/06/11 02:30:43;;;;;;;9.70;7.07;;;;;;;;;;5094860;28;20481;-53
2021/06/11 02:33:10;;;;;;;6.82;4.90;;;;;;;;;;5094678;28;20016;-52
2021/06/11 02:35:36;;;;;;;8.85;5.03;;;;;;;;;;5094458;28;20020;-50
2021/06/11 02:38:02;;;;;;;6.03;4.90;;;;;;;;;;5094685;28;20461;-50
2021/06/11 02:40:28;;;;;;;8.25;5.65;;;;;;;;;;5094370;28;20111;-52
2021/06/11 02:42:57;;;;;;;5.43;4.75;;;;;;;;;;5094270;28;20032;-51
2021/06/11 02:45:25;;;;;;;13.80;8.98;;;;;;;;;;5094079;28;20107;-50
2021/06/11 02:48:00;;;;;;;10.77;7.90;;;;;;;;;;5094343;28;20073;-51
2021/06/11 02:50:29;;;;;;;7.55;5.85;;;;;;;;;;5094196;28;20024;-52
2021/06/11 02:53:00;;;;;;;9.52;6.35;;;;;;;;;;5094506;28;20073;-51
2021/06/11 02:55:27;;;;;;;5.22;4.65;;;;;;;;;;5094572;28;20031;-51
2021/06/11 02:57:57;;;;;;;8.63;4.68;;;;;;;;;;5094143;28;20020;-50
2021/06/11 03:00:25;;;;;;;6.90;5.15;;;;;;;;;;5093902;28;20085;-52
2021/06/11 03:03:06;;;;;;;6.82;5.45;;;;;;;;;;5093917;28;20024;-50
2021/06/11 03:05:35;;;;;;;5.75;5.05;;;;;;;;;;5094097;28;20020;-52
2021/06/11 03:08:06;;;;;;;7.53;6.05;;;;;;;;;;5094089;28;20026;-52
2021/06/11 03:10:32;;;;;;;8.65;5.00;;;;;;;;;;5094023;28;20052;-51
2021/06/11 03:12:59;;;;;;;6.25;4.75;;;;;;;;;;5093610;28;20036;-52
2021/06/11 03:15:27;;;;;;;6.35;4.45;;;;;;;;;;5093753;28;20032;-51
2021/06/11 03:17:55;;;;;;;7.18;5.47;;;;;;;;;;5093849;28;20054;-52
2021/06/11 03:20:24;;;;;;;5.80;5.15;;;;;;;;;;5094252;28;20491;-55
2021/06/11 03:22:56;;;;;;;4.78;4.20;;;;;;;;;;5093830;28;20024;-50
2021/06/11 03:25:27;;;;;;;6.55;5.05;;;;;;;;;;5094073;28;20020;-53
2021/06/11 03:27:55;;;;;;;6.07;5.17;;;;;;;;;;5093767;28;20020;-52
2021/06/11 03:30:24;;;;;;;6.38;5.10;;;;;;;;;;5093716;28;20032;-51
2021/06/11 03:32:53;;;;;;;9.95;7.00;;;;;;;;;;5093522;28;20031;-51
2021/06/11 03:35:22;;;;;;;8.98;5.63;;;;;;;;;;5093602;28;20024;-52
2021/06/11 03:37:51;;;;;;;8.00;5.22;;;;;;;;;;5093476;28;20403;-51
2021/06/11 03:40:19;;;;;;;6.20;5.50;;;;;;;;;;5093412;28;20395;-49
2021/06/11 03:42:45;;;;;;;7.40;5.22;;;;;;;;;;5093316;28;20028;-51
2021/06/11 03:45:12;;;;;;;5.72;5.13;;;;;;;;;;5093409;28;20036;-51
2021/06/11 03:47:39;;;;;;;5.78;5.18;;;;;;;;;;5093715;28;20422;-51
2021/06/11 03:50:06;;;;;;;6.00;5.18;;;;;;;;;;5093529;28;20111;-50
2021/06/11 03:52:33;;;;;;;7.32;5.18;;;;;;;;;;5093446;28;20023;-50
2021/06/11 03:55:28;;;;;;;5.57;4.72;;;;;;;;;;5093417;28;20027;-52
2021/06/11 03:58:11;;;;;;;7.50;5.25;;;;;;;;;;5075146;28;20473;-51
2021/06/11 04:00:37;;;;;;;11.30;7.20;;;;;;;;;;5075346;28;20040;-53
2021/06/11 04:03:05;;;;;;;5.93;5.03;;;;;;;;;;5075186;28;20036;-54
2021/06/11 04:05:31;;;;;;;8.68;5.40;;;;;;;;;;5075259;28;20056;-51
2021/06/11 04:08:00;;;;;;;10.57;5.57;;;;;;;;;;5074972;28;20523;-54
2021/06/11 04:10:26;;;;;;;13.20;9.13;;;;;;;;;;5075081;28;20036;-54
2021/06/11 04:12:54;;;;;;;6.20;5.25;;;;;;;;;;5074697;28;20033;-51
2021/06/11 04:15:23;;;;;;;10.13;7.43;;;;;;;;;;5075017;28;20124;-54
2021/06/11 04:17:53;;;;;;;12.65;7.82;;;;;;;;;;5074837;28;20042;-52
2021/06/11 04:20:25;;;;;;;11.15;6.78;;;;;;;;;;5074696;28;20040;-52
2021/06/11 04:22:52;;;;;;;10.55;6.90;;;;;;;;;;5074762;28;20023;-53
2021/06/11 04:25:19;;;;;;;10.73;7.30;;;;;;;;;;5074739;28;20021;-52
2021/06/11 04:27:46;;;;;;;7.22;4.97;;;;;;;;;;5074601;28;20032;-52
2021/06/11 04:30:14;;;;;;;56.10;36.92;;;;;;;;;;5074625;28;20070;-52
2021/06/11 04:32:41;;;;;;;12.35;8.18;;;;;;;;;;5074627;28;20024;-52
2021/06/11 04:35:08;;;;;;;17.55;11.68;;;;;;;;;;5092983;28;20043;-53
2021/06/11 04:37:36;;;;;;;16.60;9.88;;;;;;;;;;5097199;28;20028;-53
2021/06/11 04:40:02;;;;;;;11.32;8.80;;;;;;;;;;5096899;28;20036;-53
2021/06/11 04:42:32;;;;;;;9.00;6.80;;;;;;;;;;5096767;28;20354;-53
2021/06/11 04:44:59;;;;;;;7.13;6.15;;;;;;;;;;5096848;28;20089;-53
2021/06/11 04:47:27;;;;;;;10.40;7.97;;;;;;;;;;5096608;28;20024;-53
2021/06/11 04:49:53;;;;;;;23.77;15.85;;;;;;;;;;5096465;28;20067;-53
2021/06/11 04:52:19;;;;;;;37.30;22.85;;;;;;;;;;5096762;28;20446;-53
2021/06/11 04:54:45;;;;;;;17.67;10.80;;;;;;;;;;5096623;28;20020;-54
2021/06/11 04:57:11;;;;;;;15.75;10.30;;;;;;;;;;5096921;28;20020;-53
2021/06/11 04:59:37;;;;;;;12.50;8.13;;;;;;;;;;5096215;28;20024;-53
2021/06/11 05:02:04;;;;;;;5.50;4.95;;;;;;;;;;5093421;28;20695;-52
2021/06/11 05:04:30;;;;;;;10.82;7.32;;;;;;;;;;5075895;28;20480;-54
2021/06/11 05:06:56;;;;;;;7.38;6.22;;;;;;;;;;5075563;28;20087;-55
2021/06/11 05:09:22;;;;;;;17.95;11.60;;;;;;;;;;5075458;28;20024;-54
2021/06/11 05:11:49;;;;;;;13.93;9.95;;;;;;;;;;5075510;28;20048;-54
2021/06/11 05:14:15;;;;;;;8.55;5.53;;;;;;;;;;5074342;28;20056;-54
2021/06/11 05:16:41;;;;;;;10.95;6.18;;;;;;;;;;5076042;28;20031;-54
2021/06/11 05:19:07;;;;;;;10.77;6.65;;;;;;;;;;5075728;28;20119;-53
2021/06/11 05:21:33;;;;;;;15.32;8.85;;;;;;;;;;5075724;28;20028;-54
2021/06/11 05:23:59;;;;;;;9.18;6.05;;;;;;;;;;5075734;28;20029;-54
2021/06/11 05:26:28;;;;;;;7.97;6.38;;;;;;;;;;5075841;28;20027;-52
2021/06/11 05:28:54;;;;;;;11.50;8.93;;;;;;;;;;5075558;28;20095;-53
2021/06/11 05:31:20;;;;;;;12.75;7.75;;;;;;;;;;5075767;28;20074;-53
2021/06/11 05:33:46;;;;;;;8.77;5.47;;;;;;;;;;5075525;28;20476;-53
2021/06/11 05:36:12;;;;;;;6.90;5.00;;;;;;;;;;5075409;28;20032;-52
2021/06/11 05:38:38;;;;;;;6.53;5.28;;;;;;;;;;5075350;28;20027;-53
2021/06/11 05:41:05;;;;;;;6.03;4.15;;;;;;;;;;5075299;28;20060;-54
2021/06/11 05:43:31;;;;;;;8.38;6.45;;;;;;;;;;5075191;28;20391;-54
2021/06/11 05:45:57;;;;;;;5.70;4.43;;;;;;;;;;5075307;28;20021;-54
2021/06/11 05:48:24;;;;;;;7.15;5.90;;;;;;;;;;5075427;28;20025;-54
2021/06/11 05:50:50;;;;;;;6.95;5.28;;;;;;;;;;5075142;28;20465;-53
2021/06/11 05:53:22;;;;;;;4.78;4.10;;;;;;;;;;5075191;28;20035;-54
2021/06/11 05:55:48;;;;;;;4.30;3.92;;;;;;;;;;5075513;28;20373;-54
2021/06/11 05:58:14;;;;;;;8.05;4.20;;;;;;;;;;5075000;28;20495;-53
2021/06/11 06:00:40;;;;;;;4.72;4.32;;;;;;;;;;5074855;28;20493;-54
2021/06/11 06:03:06;;;;;;;5.70;3.92;;;;;;;;;;5075093;28;20032;-54
2021/06/11 06:05:32;;;;;;;5.40;4.07;;;;;;;;;;5074802;28;20040;-53
2021/06/11 06:07:58;;;;;;;5.25;4.05;;;;;;;;;;5074826;28;20056;-53
2021/06/11 06:10:24;;;;;;;4.60;4.20;;;;;;;;;;5074776;28;20020;-54
2021/06/11 06:12:50;;;;;;;5.07;4.22;;;;;;;;;;5074382;28;20103;-53
2021/06/11 06:15:19;;;;;;;6.18;4.05;;;;;;;;;;5074598;28;20036;-54
2021/06/11 06:17:45;;;;;;;4.35;3.90;;;;;;;;;;5074647;28;20012;-54
2021/06/11 06:20:12;;;;;;;5.75;3.92;;;;;;;;;;5073806;28;20145;-54
2021/06/11 06:22:39;;;;;;;4.78;4.20;;;;;;;;;;5074744;28;20036;-53
2021/06/11 06:25:06;;;;;;;4.25;3.58;;;;;;;;;;5073190;28;20028;-54
2021/06/11 06:27:33;;;;;;;4.30;3.90;;;;;;;;;;5074382;28;20025;-55
2021/06/11 06:29:59;;;;;;;4.95;4.07;;;;;;;;;;5074567;28;20027;-54
2021/06/11 06:32:30;;;;;;;5.57;3.80;;;;;;;;;;5074570;28;20032;-54
2021/06/11 06:34:57;;;;;;;6.05;3.72;;;;;;;;;;5074176;28;20376;-54
2021/06/11 06:37:23;;;;;;;6.75;3.92;;;;;;;;;;5074167;28;20392;-54
2021/06/11 06:39:50;;;;;;;5.97;3.60;;;;;;;;;;5074267;28;20033;-54
2021/06/11 06:42:18;;;;;;;5.80;3.50;;;;;;;;;;5073996;28;20036;-53
2021/06/11 06:44:44;;;;;;;4.57;3.60;;;;;;;;;;5073931;28;20063;-53
2021/06/11 06:47:10;;;;;;;4.53;3.63;;;;;;;;;;5074020;28;20103;-53
2021/06/11 06:49:37;;;;;;;5.25;3.80;;;;;;;;;;5074032;28;20029;-55
2021/06/11 06:52:03;;;;;;;3.42;3.13;;;;;;;;;;5074296;28;20373;-53
2021/06/11 06:54:30;;;;;;;3.30;3.00;;;;;;;;;;5074210;28;20046;-53
2021/06/11 06:56:56;;;;;;;3.53;3.22;;;;;;;;;;5074082;28;20021;-53
2021/06/11 06:59:22;;;;;;;4.75;3.33;;;;;;;;;;5073958;28;20032;-53
2021/06/11 07:01:48;;;;;;;4.10;3.70;;;;;;;;;;5073873;28;20035;-51
2021/06/11 07:04:14;;;;;;;4.68;3.40;;;;;;;;;;5073628;28;20024;-53
2021/06/11 07:06:41;;;;;;;6.55;3.55;;;;;;;;;;5073687;28;20024;-53
2021/06/11 07:09:09;;;;;;;5.20;3.42;;;;;;;;;;5073739;28;20537;-53
2021/06/11 07:11:35;;;;;;;3.95;3.50;;;;;;;;;;5073574;28;20032;-53
2021/06/11 07:14:01;;;;;;;5.00;3.58;;;;;;;;;;5073464;28;20053;-52
2021/06/11 07:16:27;;;;;;;5.50;4.68;;;;;;;;;;5072324;28;20165;-51
2021/06/11 07:18:53;;;;;;;6.88;4.70;;;;;;;;;;5073328;28;20396;-51
2021/06/11 07:21:19;;;;;;;6.57;3.90;;;;;;;;;;5073396;28;20099;-51
2021/06/11 07:23:45;;;;;;;10.95;8.18;;;;;;;;;;5073502;28;20023;-49
2021/06/11 07:26:11;;;;;;;24.20;14.48;;;;;;;;;;5073583;28;20048;-52
2021/06/11 07:28:38;;;;;;;10.88;7.43;;;;;;;;;;5073505;28;20025;-52
2021/06/11 07:31:05;;;;;;;18.60;8.48;;;;;;;;;;5072633;28;20024;-53
2021/06/11 07:33:31;;;;;;;11.48;6.95;;;;;;;;;;5073352;28;20078;-53
2021/06/11 07:35:58;;;;;;;11.50;7.10;;;;;;;;;;5073801;28;20021;-51
2021/06/11 07:38:29;;;;;;;9.57;5.45;;;;;;;;;;5074699;28;20036;-53
2021/06/11 07:40:55;;;;;;;23.23;14.93;;;;;;;;;;5073884;28;20036;-53
2021/06/11 07:43:21;;;;;;;34.92;21.48;;;;;;;;;;5073300;28;20028;-53
2021/06/11 07:45:48;;;;;;;14.68;7.97;;;;;;;;;;5073635;28;20024;-52
2021/06/11 07:48:14;;;;;;;11.57;9.20;;;;;;;;;;5073181;28;20576;-52
2021/06/11 07:50:41;;;;;;;35.58;21.85;;;;;;;;;;5073158;28;20036;-53
2021/06/11 07:53:07;;;;;;;29.00;12.43;;;;;;;;;;5073369;28;20021;-52
2021/06/11 07:55:33;;;;;;;33.78;21.55;;;;;;;;;;5073219;28;20524;-52
2021/06/11 07:57:59;;;;;;;47.15;27.20;;;;;;;;;;5073248;28;20023;-52
2021/06/11 08:00:26;;;;;;;6.97;5.30;;;;;;;;;;5073132;28;20488;-52
2021/06/11 08:02:56;;;;;;;12.13;7.53;;;;;;;;;;5073293;28;20103;-50
2021/06/11 08:05:24;;;;;;;9.95;6.03;;;;;;;;;;5073053;28;20400;-50
2021/06/11 08:07:50;;;;;;;22.35;13.75;;;;;;;;;;5073144;28;20019;-51
2021/06/11 08:10:17;;;;;;;15.00;9.55;;;;;;;;;;5073602;28;20024;-51
2021/06/11 08:12:43;;;;;;;12.98;6.13;;;;;;;;;;5073100;28;20447;-51
2021/06/11 08:15:09;;;;;;;10.73;7.43;;;;;;;;;;5072893;28;20110;-51
2021/06/11 08:17:35;;;;;;;8.00;4.85;;;;;;;;;;5072937;28;20477;-52
2021/06/11 08:20:01;;;;;;;17.48;9.50;;;;;;;;;;5072861;28;20044;-52
2021/06/11 08:22:27;;;;;;;5.57;4.07;;;;;;;;;;5071992;28;20040;-52
2021/06/11 08:24:53;;;;;;;5.53;3.88;;;;;;;;;;5073184;28;20041;-52
2021/06/11 08:27:20;;;;;;;5.05;3.88;;;;;;;;;;5073498;28;20020;-52
2021/06/11 08:29:46;;;;;;;7.35;4.25;;;;;;;;;;5072998;28;20028;-52
2021/06/11 08:32:12;;;;;;;6.15;4.32;;;;;;;;;;5072935;28;20148;-52
2021/06/11 08:34:39;;;;;;;6.72;5.10;;;;;;;;;;5072951;28;20020;-53
2021/06/11 08:37:06;;;;;;;5.63;4.13;;;;;;;;;;5073020;28;20048;-54
2021/06/11 08:39:33;;;;;;;8.10;3.72;;;;;;;;;;5072839;28;20442;-53
2021/06/11 08:41:59;;;;;;;7.55;4.68;;;;;;;;;;5073750;28;20017;-52
2021/06/11 08:44:29;;;;;;;4.35;3.50;;;;;;;;;;5076522;28;20043;-53
2021/06/11 08:46:56;;;;;;;4.93;3.47;;;;;;;;;;5076672;28;20024;-54
2021/06/11 08:49:24;;;;;;;5.88;4.00;;;;;;;;;;5074914;28;20028;-52
2021/06/11 08:51:51;;;;;;;4.07;3.30;;;;;;;;;;5076371;28;20028;-51
2021/06/11 08:54:17;;;;;;;5.63;3.78;;;;;;;;;;5076311;28;20036;-52
2021/06/11 08:56:43;;;;;;;7.03;3.65;;;;;;;;;;5076320;28;20078;-52
2021/06/11 08:59:09;;;;;;;9.82;5.65;;;;;;;;;;5076296;28;20031;-50
2021/06/11 09:01:35;;;;;;;5.50;3.42;;;;;;;;;;5076161;28;20025;-48
2021/06/11 09:04:01;;;;;;;11.77;7.05;;;;;;;;;;5076041;28;20027;-51
2021/06/11 09:06:28;;;;;;;7.00;5.22;;;;;;;;;;5075921;28;20028;-52
2021/06/11 09:08:54;;;;;;;10.02;4.85;;;;;;;;;;5076102;28;20346;-54
2021/06/11 09:11:24;;;;;;;6.97;5.32;;;;;;;;;;5076131;28;20427;-51
2021/06/11 09:13:54;;;;;;;19.02;8.95;;;;;;;;;;5075738;28;20445;-47
2021/06/11 09:16:24;;;;;;;13.57;7.05;;;;;;;;;;5076133;28;20024;-49
2021/06/11 09:18:50;;;;;;;9.35;8.02;;;;;;;;;;5075744;28;20052;-51
2021/06/11 09:21:25;;;;;;;14.02;9.05;;;;;;;;;;5075775;28;20028;-48
2021/06/11 09:24:31;;;;;;;12.60;8.68;;;;;;;;;;5075645;28;20028;-52
2021/06/11 09:26:57;;;;;;;15.15;9.55;;;;;;;;;;5075536;28;20542;-53
2021/06/11 09:29:31;;;;;;;17.75;10.70;;;;;;;;;;5075623;28;20380;-53
2021/06/11 09:32:16;;;;;;;13.93;10.35;;;;;;;;;;5075637;28;20024;-49
2021/06/11 09:34:42;;;;;;;21.95;14.48;;;;;;;;;;5075659;28;20396;-53
2021/06/11 09:37:14;;;;;;;17.58;11.82;;;;;;;;;;5075623;28;20024;-48
2021/06/11 09:39:40;;;;;;;12.93;8.23;;;;;;;;;;5075304;28;20037;-53
2021/06/11 09:42:06;;;;;;;12.82;7.90;;;;;;;;;;5075465;28;20492;-51
2021/06/11 09:44:33;;;;;;;19.83;13.55;;;;;;;;;;5075338;28;20512;-47
2021/06/11 09:46:59;;;;;;;11.35;7.47;;;;;;;;;;5073991;28;20397;-54
2021/06/11 09:49:28;;;;;;;14.35;8.30;;;;;;;;;;5074556;28;20035;-53
2021/06/11 09:52:05;;;;;;;13.52;7.30;;;;;;;;;;5072758;28;20056;-54
2021/06/11 09:54:31;;;;;;;17.88;9.65;;;;;;;;;;5072381;28;20036;-54
2021/06/11 09:56:57;;;;;;;41.88;23.30;;;;;;;;;;5073763;28;20029;-53
2021/06/11 09:59:43;;;;;;;35.10;21.27;;;;;;;;;;5073990;28;20042;-52
2021/06/11 10:02:31;;;;;;;16.58;10.40;;;;;;;;;;5073908;28;20020;-52
2021/06/11 10:04:58;;;;;;;72.70;50.35;;;;;;;;;;5088980;28;20024;-54
2021/06/11 10:07:24;;;;;;;48.30;28.10;;;;;;;;;;5095347;28;20387;-57
2021/06/11 10:09:50;;;;;;;23.65;14.20;;;;;;;;;;5094682;28;20024;-53
2021/06/11 10:12:16;;;;;;;107.65;76.88;;;;;;;;;;5095036;28;20055;-54
2021/06/11 10:14:44;;;;;;;25.52;18.10;;;;;;;;;;5095165;28;20502;-53
2021/06/11 10:17:11;;;;;;;99.93;52.63;;;;;;;;;;5095050;28;20027;-52
2021/06/11 10:19:38;;;;;;;83.72;58.35;;;;;;;;;;5089470;28;20074;-52
2021/06/11 10:22:06;;;;;;;27.92;20.25;;;;;;;;;;5094873;28;20021;-53
2021/06/11 10:24:34;;;;;;;67.05;40.13;;;;;;;;;;5094975;28;20062;-52
2021/06/11 10:27:01;;;;;;;24.40;16.60;;;;;;;;;;5094871;28;20016;-52
2021/06/11 10:29:27;;;;;;;24.00;17.02;;;;;;;;;;5094622;28;20055;-53
2021/06/11 10:31:54;;;;;;;179.02;136.55;;;;;;;;;;5094579;28;20024;-51
2021/06/11 10:34:20;;;;;;;45.95;28.20;;;;;;;;;;5094123;28;20135;-46
2021/06/11 10:36:47;;;;;;;17.83;12.15;;;;;;;;;;5094563;28;20364;-48
2021/06/11 10:39:14;;;;;;;4.28;3.47;;;;;;;;;;5094393;28;20039;-48
2021/06/11 10:41:55;;;;;;;6.07;4.32;;;;;;;;;;5094506;28;20032;-53
2021/06/11 10:44:37;;;;;;;10.00;5.68;;;;;;;;;;5094483;28;20509;-52
2021/06/11 10:47:18;;;;;;;8.50;6.70;;;;;;;;;;5089930;28;20027;-55
2021/06/11 10:49:57;;;;;;;27.95;16.35;;;;;;;;;;5094319;28;20054;-55
2021/06/11 10:52:45;;;;;;;11.57;7.72;;;;;;;;;;5094306;28;20032;-52
2021/06/11 10:55:15;;;;;;;30.55;17.83;;;;;;;;;;5094219;28;20020;-47
2021/06/11 10:57:41;;;;;;;21.77;13.18;;;;;;;;;;5093845;28;20028;-54
2021/06/11 11:00:21;;;;;;;11.52;8.73;;;;;;;;;;5093945;28;20032;-52
2021/06/11 11:02:48;;;;;;;23.27;14.43;;;;;;;;;;5094095;28;20035;-51
2021/06/11 11:05:30;;;;;;;30.83;22.17;;;;;;;;;;5093356;28;20531;-50
2021/06/11 11:07:56;;;;;;;24.85;17.42;;;;;;;;;;5093876;28;20055;-50
2021/06/11 11:10:43;;;;;;;16.00;10.23;;;;;;;;;;5094012;28;20024;-47
2021/06/11 11:13:09;;;;;;;18.05;13.20;;;;;;;;;;5093671;28;20032;-54
2021/06/11 11:15:35;;;;;;;69.28;46.90;;;;;;;;;;5093760;28;20028;-51
2021/06/11 11:18:01;;;;;;;68.80;48.92;;;;;;;;;;5093827;28;20028;-52
2021/06/11 11:20:29;;;;;;;11.50;9.32;;;;;;;;;;5093726;28;20093;-45
2021/06/11 11:22:59;;;;;;;13.73;9.13;;;;;;;;;;5093696;28;20024;-46
2021/06/11 11:25:25;;;;;;;13.07;9.30;;;;;;;;;;5093827;28;20486;-51
2021/06/11 11:27:53;;;;;;;16.98;12.45;;;;;;;;;;5092397;28;20491;-52
2021/06/11 11:30:20;;;;;;;12.85;9.38;;;;;;;;;;5093650;28;20020;-51
2021/06/11 11:32:46;;;;;;;7.68;5.93;;;;;;;;;;5093687;28;20019;-51
2021/06/11 11:35:17;;;;;;;11.27;8.00;;;;;;;;;;5092991;28;20042;-51
2021/06/11 11:37:43;;;;;;;44.08;29.92;;;;;;;;;;5092206;28;20064;-50
2021/06/11 11:40:10;;;;;;;33.47;22.88;;;;;;;;;;5093510;28;20068;-52
2021/06/11 11:42:36;;;;;;;5.13;3.75;;;;;;;;;;5093570;28;20043;-49
2021/06/11 11:45:02;;;;;;;13.95;7.63;;;;;;;;;;5093488;28;20020;-49
2021/06/11 11:47:28;;;;;;;19.33;13.02;;;;;;;;;;5093605;28;20063;-45
2021/06/11 11:49:54;;;;;;;21.73;13.48;;;;;;;;;;5093282;28;20020;-50
2021/06/11 11:52:20;;;;;;;9.32;6.63;;;;;;;;;;5093416;28;20481;-55
2021/06/11 11:54:46;;;;;;;5.15;3.05;;;;;;;;;;5093336;28;20081;-51
2021/06/11 11:57:12;;;;;;;19.08;11.77;;;;;;;;;;5093670;28;20024;-52
2021/06/11 11:59:38;;;;;;;30.98;19.08;;;;;;;;;;5093506;28;20468;-51
2021/06/11 12:02:08;;;;;;;9.50;5.68;;;;;;;;;;5093184;28;20016;-50
2021/06/11 12:04:34;;;;;;;27.75;14.95;;;;;;;;;;5092693;28;20020;-52
2021/06/11 12:07:00;;;;;;;16.40;11.38;;;;;;;;;;5093109;28;20020;-51
2021/06/11 12:09:26;;;;;;;9.25;6.15;;;;;;;;;;5093255;28;20020;-47
2021/06/11 12:11:53;;;;;;;40.28;25.73;;;;;;;;;;5093370;28;20035;-54
2021/06/11 12:14:19;;;;;;;26.80;16.30;;;;;;;;;;5093340;28;20136;-53
2021/06/11 12:16:45;;;;;;;69.60;30.02;;;;;;;;;;5093906;28;20387;-53
2021/06/11 12:19:11;;;;;;;41.67;20.33;;;;;;;;;;5097259;28;20028;-51
2021/06/11 12:21:37;;;;;;;37.22;15.98;;;;;;;;;;5096955;28;20388;-54
2021/06/11 12:24:04;;;;;;;18.27;10.95;;;;;;;;;;5097320;28;20016;-54
2021/06/11 12:26:31;;;;;;;37.90;17.30;;;;;;;;;;5097234;28;20421;-55
2021/06/11 12:28:57;;;;;;;24.02;15.88;;;;;;;;;;5096951;28;20384;-54
2021/06/11 12:31:23;;;;;;;5.85;4.20;;;;;;;;;;5097115;28;20016;-54
2021/06/11 12:33:50;;;;;;;6.70;4.00;;;;;;;;;;5095056;28;20448;-55
2021/06/11 12:36:16;;;;;;;5.75;3.72;;;;;;;;;;5096893;28;20388;-54
2021/06/11 12:38:42;;;;;;;5.55;2.20;;;;;;;;;;5097071;28;20388;-55
2021/06/11 12:41:10;;;;;;;15.90;8.27;;;;;;;;;;5096948;28;20451;-55
2021/06/11 12:46:22;;;;;;;5.05;3.08;;;;;;;;;;5096754;28;20035;-53
2021/06/11 12:48:49;;;;;;;8.90;2.30;;;;;;;;;;5095510;28;20012;-54
2021/06/11 12:51:15;;;;;;;3.15;2.30;;;;;;;;;;5096594;28;20055;-53
2021/06/11 12:53:41;;;;;;;5.43;2.47;;;;;;;;;;5096559;28;20030;-55
2021/06/11 12:56:07;;;;;;;2.70;2.45;;;;;;;;;;5095244;28;20043;-53
2021/06/11 12:58:33;;;;;;;3.00;2.00;;;;;;;;;;5096510;28;20085;-54
2021/06/11 13:01:00;;;;;;;5.03;3.33;;;;;;;;;;5086575;28;20036;-55
2021/06/11 13:03:26;;;;;;;3.67;2.50;;;;;;;;;;5094512;28;20120;-55
2021/06/11 13:05:52;;;;;;;3.40;2.25;;;;;;;;;;5096461;28;20058;-55
2021/06/11 13:08:19;;;;;;;3.00;2.65;;;;;;;;;;5096536;28;20471;-54
2021/06/11 13:10:45;;;;;;;8.20;3.13;;;;;;;;;;5096175;28;20589;-53
2021/06/11 13:13:11;;;;;;;2.47;2.28;;;;;;;;;;5096111;28;20065;-52
2021/06/11 13:15:37;;;;;;;2.42;2.20;;;;;;;;;;5096213;28;20506;-54
2021/06/11 13:18:04;;;;;;;2.45;2.25;;;;;;;;;;5096240;28;20020;-53
2021/06/11 13:20:30;;;;;;;3.03;2.72;;;;;;;;;;5094660;28;20476;-55
2021/06/11 13:22:56;;;;;;;16.17;9.50;;;;;;;;;;5095956;28;20500;-54
2021/06/11 13:25:22;;;;;;;9.35;5.47;;;;;;;;;;5096033;28;20491;-54
2021/06/11 13:27:48;;;;;;;9.38;6.50;;;;;;;;;;5095386;28;20103;-55
2021/06/11 13:30:15;;;;;;;11.95;9.07;;;;;;;;;;5095298;28;20021;-55
2021/06/11 13:32:42;;;;;;;11.55;8.02;;;;;;;;;;5095809;28;20483;-55
2021/06/11 13:35:08;;;;;;;9.18;6.18;;;;;;;;;;5095159;28;20063;-53
2021/06/11 13:37:34;;;;;;;3.80;2.35;;;;;;;;;;5095907;28;20020;-54
2021/06/11 13:40:00;;;;;;;6.18;4.07;;;;;;;;;;5094359;28;20052;-53
2021/06/11 13:42:26;;;;;;;6.93;4.53;;;;;;;;;;5095692;28;20031;-54
2021/06/11 13:44:52;;;;;;;13.77;8.32;;;;;;;;;;5095975;28;20471;-54
2021/06/11 13:47:18;;;;;;;13.20;8.85;;;;;;;;;;5095636;28;20031;-55
2021/06/11 13:49:44;;;;;;;10.35;7.68;;;;;;;;;;5095482;28;20021;-55
2021/06/11 13:52:11;;;;;;;83.22;53.15;;;;;;;;;;5096547;28;20023;-53
2021/06/11 13:54:37;;;;;;;6.93;4.75;;;;;;;;;;5096271;28;20103;-56
2021/06/11 13:57:03;;;;;;;4.78;3.15;;;;;;;;;;5096111;28;20392;-56
2021/06/11 13:59:29;;;;;;;6.93;4.57;;;;;;;;;;5095627;28;20024;-53
2021/06/11 14:01:56;;;;;;;8.88;6.72;;;;;;;;;;5095393;28;20123;-53
2021/06/11 14:04:23;;;;;;;3.13;2.63;;;;;;;;;;5093663;28;20075;-52
2021/06/11 14:06:49;;;;;;;5.68;4.60;;;;;;;;;;5095359;28;20032;-52
2021/06/11 14:09:15;;;;;;;5.03;3.85;;;;;;;;;;5095294;28;20393;-54
2021/06/11 14:11:41;;;;;;;5.15;4.00;;;;;;;;;;5088987;28;20032;-53
2021/06/11 14:14:09;;;;;;;4.60;3.50;;;;;;;;;;5074634;28;20136;-52
2021/06/11 14:16:35;;;;;;;56.33;38.50;;;;;;;;;;5074703;28;20032;-53
2021/06/11 14:19:02;;;;;;;6.32;5.13;;;;;;;;;;5074474;28;20452;-53
2021/06/11 14:21:29;;;;;;;13.80;8.45;;;;;;;;;;5074520;28;20033;-54
2021/06/11 14:23:55;;;;;;;6.13;5.10;;;;;;;;;;5074613;28;20029;-53
2021/06/11 14:26:21;;;;;;;8.50;6.47;;;;;;;;;;5074609;28;20028;-53
2021/06/11 14:28:47;;;;;;;4.18;3.47;;;;;;;;;;5074443;28;20028;-52
2021/06/11 14:31:13;;;;;;;2.40;2.08;;;;;;;;;;5074474;28;20025;-53
2021/06/11 14:33:39;;;;;;;7.68;6.22;;;;;;;;;;5074298;28;20483;-53
2021/06/11 14:36:06;;;;;;;4.70;4.05;;;;;;;;;;5091179;28;20472;-53
2021/06/11 14:38:32;;;;;;;7.63;6.22;;;;;;;;;;5093256;28;20381;-53